sensor_id;sensor_type;location;lat;lon;timestamp;temperature;humidity
53904;DHT22;39812;52.430;16.936;2023-08-08T00:00:11;13.50;96.80
53904;DHT22;39812;52.430;16.936;2023-08-08T00:02:37;13.40;96.90
53904;DHT22;39812;52.430;16.936;2023-08-08T00:05:03;13.30;97.10
53904;DHT22;39812;52.430;16.936;2023-08-08T00:07:28;13.30;97.30
53904;DHT22;39812;52.430;16.936;2023-08-08T00:09:57;13.30;97.40
53904;DHT22;39812;52.430;16.936;2023-08-08T00:12:23;13.30;97.50
53904;DHT22;39812;52.430;16.936;2023-08-08T00:14:49;13.30;97.60
53904;DHT22;39812;52.430;16.936;2023-08-08T00:17:15;13.40;97.80
53904;DHT22;39812;52.430;16.936;2023-08-08T00:19:40;13.40;97.90
53904;DHT22;39812;52.430;16.936;2023-08-08T00:22:06;13.30;98.00
53904;DHT22;39812;52.430;16.936;2023-08-08T00:24:32;13.30;98.30
53904;DHT22;39812;52.430;16.936;2023-08-08T00:26:57;13.40;98.40
53904;DHT22;39812;52.430;16.936;2023-08-08T00:29:23;13.40;98.30
53904;DHT22;39812;52.430;16.936;2023-08-08T00:31:48;13.50;98.20
53904;DHT22;39812;52.430;16.936;2023-08-08T00:34:14;13.50;98.20
53904;DHT22;39812;52.430;16.936;2023-08-08T00:36:40;13.60;98.20
53904;DHT22;39812;52.430;16.936;2023-08-08T00:39:05;13.70;98.10
53904;DHT22;39812;52.430;16.936;2023-08-08T00:41:31;13.60;98.10
53904;DHT22;39812;52.430;16.936;2023-08-08T00:43:56;13.70;98.10
53904;DHT22;39812;52.430;16.936;2023-08-08T00:46:22;13.70;97.90
53904;DHT22;39812;52.430;16.936;2023-08-08T00:48:52;13.80;97.80
53904;DHT22;39812;52.430;16.936;2023-08-08T00:51:18;13.80;97.80
53904;DHT22;39812;52.430;16.936;2023-08-08T00:53:44;13.80;97.80
53904;DHT22;39812;52.430;16.936;2023-08-08T00:56:14;13.80;97.90
53904;DHT22;39812;52.430;16.936;2023-08-08T00:58:42;13.80;97.90
53904;DHT22;39812;52.430;16.936;2023-08-08T01:01:11;13.80;97.70
53904;DHT22;39812;52.430;16.936;2023-08-08T01:03:36;13.90;97.80
53904;DHT22;39812;52.430;16.936;2023-08-08T01:06:10;13.90;97.70
53904;DHT22;39812;52.430;16.936;2023-08-08T01:08:51;13.90;97.70
53904;DHT22;39812;52.430;16.936;2023-08-08T01:11:18;13.90;97.60
53904;DHT22;39812;52.430;16.936;2023-08-08T01:13:44;13.90;97.60
53904;DHT22;39812;52.430;16.936;2023-08-08T01:16:12;13.90;97.90
53904;DHT22;39812;52.430;16.936;2023-08-08T01:18:38;13.80;98.00
53904;DHT22;39812;52.430;16.936;2023-08-08T01:21:05;13.80;98.20
53904;DHT22;39812;52.430;16.936;2023-08-08T01:23:43;13.80;98.30
53904;DHT22;39812;52.430;16.936;2023-08-08T01:26:11;13.80;98.10
53904;DHT22;39812;52.430;16.936;2023-08-08T01:28:37;13.80;98.20
53904;DHT22;39812;52.430;16.936;2023-08-08T01:31:02;13.70;98.30
53904;DHT22;39812;52.430;16.936;2023-08-08T01:33:28;13.60;98.40
53904;DHT22;39812;52.430;16.936;2023-08-08T01:35:58;13.60;98.30
53904;DHT22;39812;52.430;16.936;2023-08-08T01:38:36;13.60;98.40
53904;DHT22;39812;52.430;16.936;2023-08-08T01:41:04;13.50;98.50
53904;DHT22;39812;52.430;16.936;2023-08-08T01:43:32;13.50;98.60
53904;DHT22;39812;52.430;16.936;2023-08-08T01:45:59;13.40;98.70
53904;DHT22;39812;52.430;16.936;2023-08-08T01:48:27;13.30;98.90
53904;DHT22;39812;52.430;16.936;2023-08-08T01:50:53;13.30;98.90
53904;DHT22;39812;52.430;16.936;2023-08-08T01:53:19;13.20;99.00
53904;DHT22;39812;52.430;16.936;2023-08-08T01:55:44;13.20;99.10
53904;DHT22;39812;52.430;16.936;2023-08-08T01:58:10;13.10;99.30
53904;DHT22;39812;52.430;16.936;2023-08-08T02:00:36;13.00;99.50
53904;DHT22;39812;52.430;16.936;2023-08-08T02:03:02;13.00;99.50
53904;DHT22;39812;52.430;16.936;2023-08-08T02:05:28;13.00;99.50
53904;DHT22;39812;52.430;16.936;2023-08-08T02:07:54;13.10;99.40
53904;DHT22;39812;52.430;16.936;2023-08-08T02:10:19;13.10;99.40
53904;DHT22;39812;52.430;16.936;2023-08-08T02:12:45;13.10;99.60
53904;DHT22;39812;52.430;16.936;2023-08-08T02:15:10;13.00;99.80
53904;DHT22;39812;52.430;16.936;2023-08-08T02:17:37;13.00;99.70
53904;DHT22;39812;52.430;16.936;2023-08-08T02:20:04;13.10;99.70
53904;DHT22;39812;52.430;16.936;2023-08-08T02:22:30;13.20;99.70
53904;DHT22;39812;52.430;16.936;2023-08-08T02:24:55;13.20;99.70
53904;DHT22;39812;52.430;16.936;2023-08-08T02:27:21;13.20;99.70
53904;DHT22;39812;52.430;16.936;2023-08-08T02:29:46;13.10;99.80
53904;DHT22;39812;52.430;16.936;2023-08-08T02:32:12;13.10;99.90
53904;DHT22;39812;52.430;16.936;2023-08-08T02:34:38;13.10;99.90
53904;DHT22;39812;52.430;16.936;2023-08-08T02:37:04;13.00;99.90
53904;DHT22;39812;52.430;16.936;2023-08-08T02:39:30;13.00;99.90
53904;DHT22;39812;52.430;16.936;2023-08-08T02:41:55;13.00;99.90
53904;DHT22;39812;52.430;16.936;2023-08-08T02:44:21;13.00;99.90
53904;DHT22;39812;52.430;16.936;2023-08-08T02:46:48;12.90;99.90
53904;DHT22;39812;52.430;16.936;2023-08-08T02:49:14;12.80;99.90
53904;DHT22;39812;52.430;16.936;2023-08-08T02:51:39;12.70;99.90
53904;DHT22;39812;52.430;16.936;2023-08-08T02:54:05;12.70;99.90
53904;DHT22;39812;52.430;16.936;2023-08-08T02:56:31;12.60;99.90
53904;DHT22;39812;52.430;16.936;2023-08-08T02:58:56;12.60;99.90
53904;DHT22;39812;52.430;16.936;2023-08-08T03:01:22;12.50;99.90
53904;DHT22;39812;52.430;16.936;2023-08-08T03:03:48;12.50;99.90
53904;DHT22;39812;52.430;16.936;2023-08-08T03:06:13;12.50;99.90
53904;DHT22;39812;52.430;16.936;2023-08-08T03:08:39;12.50;99.90
53904;DHT22;39812;52.430;16.936;2023-08-08T03:11:04;12.50;99.90
53904;DHT22;39812;52.430;16.936;2023-08-08T03:13:30;12.50;99.90
53904;DHT22;39812;52.430;16.936;2023-08-08T03:15:56;12.50;99.90
53904;DHT22;39812;52.430;16.936;2023-08-08T03:18:22;12.50;99.90
53904;DHT22;39812;52.430;16.936;2023-08-08T03:20:48;12.50;99.90
53904;DHT22;39812;52.430;16.936;2023-08-08T03:23:14;12.40;99.90
53904;DHT22;39812;52.430;16.936;2023-08-08T03:25:39;12.40;99.90
53904;DHT22;39812;52.430;16.936;2023-08-08T03:28:05;12.40;99.90
53904;DHT22;39812;52.430;16.936;2023-08-08T03:30:31;12.40;99.90
53904;DHT22;39812;52.430;16.936;2023-08-08T03:32:56;12.40;99.90
53904;DHT22;39812;52.430;16.936;2023-08-08T03:35:22;12.30;99.90
53904;DHT22;39812;52.430;16.936;2023-08-08T03:37:47;12.30;99.90
53904;DHT22;39812;52.430;16.936;2023-08-08T03:40:13;12.40;99.90
53904;DHT22;39812;52.430;16.936;2023-08-08T03:42:41;12.40;99.90
53904;DHT22;39812;52.430;16.936;2023-08-08T03:45:08;12.50;99.90
53904;DHT22;39812;52.430;16.936;2023-08-08T03:47:34;12.50;99.90
53904;DHT22;39812;52.430;16.936;2023-08-08T03:49:59;12.50;99.90
53904;DHT22;39812;52.430;16.936;2023-08-08T03:52:25;12.50;99.90
53904;DHT22;39812;52.430;16.936;2023-08-08T03:54:51;12.50;99.90
53904;DHT22;39812;52.430;16.936;2023-08-08T03:57:17;12.50;99.90
53904;DHT22;39812;52.430;16.936;2023-08-08T03:59:43;12.60;99.90
53904;DHT22;39812;52.430;16.936;2023-08-08T04:02:08;12.60;99.90
53904;DHT22;39812;52.430;16.936;2023-08-08T04:04:34;12.60;99.90
53904;DHT22;39812;52.430;16.936;2023-08-08T04:06:59;12.60;99.90
53904;DHT22;39812;52.430;16.936;2023-08-08T04:09:25;12.60;99.90
53904;DHT22;39812;52.430;16.936;2023-08-08T04:11:50;12.60;99.90
53904;DHT22;39812;52.430;16.936;2023-08-08T04:14:16;12.60;99.90
53904;DHT22;39812;52.430;16.936;2023-08-08T04:16:42;12.60;99.90
53904;DHT22;39812;52.430;16.936;2023-08-08T04:19:07;12.60;99.90
53904;DHT22;39812;52.430;16.936;2023-08-08T04:21:33;12.60;99.90
53904;DHT22;39812;52.430;16.936;2023-08-08T04:23:59;12.60;99.90
53904;DHT22;39812;52.430;16.936;2023-08-08T04:26:25;12.70;99.90
53904;DHT22;39812;52.430;16.936;2023-08-08T04:28:51;12.70;99.90
53904;DHT22;39812;52.430;16.936;2023-08-08T04:31:17;12.70;99.90
53904;DHT22;39812;52.430;16.936;2023-08-08T04:33:43;12.70;99.90
53904;DHT22;39812;52.430;16.936;2023-08-08T04:36:08;12.80;99.90
53904;DHT22;39812;52.430;16.936;2023-08-08T04:38:34;12.80;99.90
53904;DHT22;39812;52.430;16.936;2023-08-08T04:41:00;12.80;99.90
53904;DHT22;39812;52.430;16.936;2023-08-08T04:43:25;12.90;99.90
53904;DHT22;39812;52.430;16.936;2023-08-08T04:45:53;12.90;99.90
53904;DHT22;39812;52.430;16.936;2023-08-08T04:48:18;13.00;99.90
53904;DHT22;39812;52.430;16.936;2023-08-08T04:50:47;13.00;99.90
53904;DHT22;39812;52.430;16.936;2023-08-08T04:53:12;13.00;99.90
53904;DHT22;39812;52.430;16.936;2023-08-08T04:55:38;13.10;99.90
53904;DHT22;39812;52.430;16.936;2023-08-08T04:58:04;13.10;99.90
53904;DHT22;39812;52.430;16.936;2023-08-08T05:00:30;13.10;99.60
53904;DHT22;39812;52.430;16.936;2023-08-08T05:02:55;13.20;99.40
53904;DHT22;39812;52.430;16.936;2023-08-08T05:05:21;13.30;99.40
53904;DHT22;39812;52.430;16.936;2023-08-08T05:07:47;13.30;99.00
53904;DHT22;39812;52.430;16.936;2023-08-08T05:10:12;13.30;99.40
53904;DHT22;39812;52.430;16.936;2023-08-08T05:12:38;13.30;99.30
53904;DHT22;39812;52.430;16.936;2023-08-08T05:15:04;13.30;98.20
53904;DHT22;39812;52.430;16.936;2023-08-08T05:17:31;13.30;98.30
53904;DHT22;39812;52.430;16.936;2023-08-08T05:19:59;13.40;98.40
53904;DHT22;39812;52.430;16.936;2023-08-08T05:22:25;13.50;98.20
53904;DHT22;39812;52.430;16.936;2023-08-08T05:24:50;13.60;97.60
53904;DHT22;39812;52.430;16.936;2023-08-08T05:27:16;13.70;97.60
53904;DHT22;39812;52.430;16.936;2023-08-08T05:29:42;13.70;97.00
53904;DHT22;39812;52.430;16.936;2023-08-08T05:32:08;13.80;96.60
53904;DHT22;39812;52.430;16.936;2023-08-08T05:34:34;13.80;96.60
53904;DHT22;39812;52.430;16.936;2023-08-08T05:37:00;13.80;96.50
53904;DHT22;39812;52.430;16.936;2023-08-08T05:39:25;13.80;96.70
53904;DHT22;39812;52.430;16.936;2023-08-08T05:41:52;13.80;96.30
53904;DHT22;39812;52.430;16.936;2023-08-08T05:44:17;13.80;96.20
53904;DHT22;39812;52.430;16.936;2023-08-08T05:46:43;13.90;96.50
53904;DHT22;39812;52.430;16.936;2023-08-08T05:49:09;14.00;95.90
53904;DHT22;39812;52.430;16.936;2023-08-08T05:51:34;14.00;95.60
53904;DHT22;39812;52.430;16.936;2023-08-08T05:54:00;14.00;95.50
53904;DHT22;39812;52.430;16.936;2023-08-08T05:56:34;14.10;95.70
53904;DHT22;39812;52.430;16.936;2023-08-08T05:59:12;14.00;95.50
53904;DHT22;39812;52.430;16.936;2023-08-08T06:01:38;14.00;95.40
53904;DHT22;39812;52.430;16.936;2023-08-08T06:04:03;14.00;95.50
53904;DHT22;39812;52.430;16.936;2023-08-08T06:06:29;14.00;95.50
53904;DHT22;39812;52.430;16.936;2023-08-08T06:08:55;14.10;95.60
53904;DHT22;39812;52.430;16.936;2023-08-08T06:11:20;14.10;95.40
53904;DHT22;39812;52.430;16.936;2023-08-08T06:13:47;14.10;95.20
53904;DHT22;39812;52.430;16.936;2023-08-08T06:16:14;14.10;95.40
53904;DHT22;39812;52.430;16.936;2023-08-08T06:18:41;14.00;95.60
53904;DHT22;39812;52.430;16.936;2023-08-08T06:21:06;14.20;95.90
53904;DHT22;39812;52.430;16.936;2023-08-08T06:23:32;14.30;95.60
53904;DHT22;39812;52.430;16.936;2023-08-08T06:25:58;14.40;95.50
53904;DHT22;39812;52.430;16.936;2023-08-08T06:28:24;14.30;95.50
53904;DHT22;39812;52.430;16.936;2023-08-08T06:30:50;14.30;95.50
53904;DHT22;39812;52.430;16.936;2023-08-08T06:33:16;14.40;95.60
53904;DHT22;39812;52.430;16.936;2023-08-08T06:35:42;14.30;95.90
53904;DHT22;39812;52.430;16.936;2023-08-08T06:38:07;14.40;96.00
53904;DHT22;39812;52.430;16.936;2023-08-08T06:40:34;14.60;95.80
53904;DHT22;39812;52.430;16.936;2023-08-08T06:43:00;14.60;95.60
53904;DHT22;39812;52.430;16.936;2023-08-08T06:45:25;14.70;95.60
53904;DHT22;39812;52.430;16.936;2023-08-08T06:47:51;14.90;95.40
53904;DHT22;39812;52.430;16.936;2023-08-08T06:50:16;14.90;95.40
53904;DHT22;39812;52.430;16.936;2023-08-08T06:52:43;14.90;95.50
53904;DHT22;39812;52.430;16.936;2023-08-08T06:55:09;14.90;95.30
53904;DHT22;39812;52.430;16.936;2023-08-08T06:57:35;14.90;95.40
53904;DHT22;39812;52.430;16.936;2023-08-08T07:00:01;15.00;95.30
53904;DHT22;39812;52.430;16.936;2023-08-08T07:02:27;15.20;95.40
53904;DHT22;39812;52.430;16.936;2023-08-08T07:04:52;15.10;95.00
53904;DHT22;39812;52.430;16.936;2023-08-08T07:07:18;15.20;95.10
53904;DHT22;39812;52.430;16.936;2023-08-08T07:09:43;15.20;95.30
53904;DHT22;39812;52.430;16.936;2023-08-08T07:12:09;15.40;95.20
53904;DHT22;39812;52.430;16.936;2023-08-08T07:14:34;15.50;94.80
53904;DHT22;39812;52.430;16.936;2023-08-08T07:17:00;15.40;94.80
53904;DHT22;39812;52.430;16.936;2023-08-08T07:19:28;15.50;94.60
53904;DHT22;39812;52.430;16.936;2023-08-08T07:21:54;15.60;94.80
53904;DHT22;39812;52.430;16.936;2023-08-08T07:24:19;15.90;94.00
53904;DHT22;39812;52.430;16.936;2023-08-08T07:26:45;16.00;93.80
53904;DHT22;39812;52.430;16.936;2023-08-08T07:29:11;16.00;93.60
53904;DHT22;39812;52.430;16.936;2023-08-08T07:31:37;15.80;94.10
53904;DHT22;39812;52.430;16.936;2023-08-08T07:34:03;16.00;93.80
53904;DHT22;39812;52.430;16.936;2023-08-08T07:36:28;15.90;93.60
53904;DHT22;39812;52.430;16.936;2023-08-08T07:38:54;16.10;93.50
53904;DHT22;39812;52.430;16.936;2023-08-08T07:41:25;15.90;93.50
53904;DHT22;39812;52.430;16.936;2023-08-08T07:43:52;16.10;93.70
53904;DHT22;39812;52.430;16.936;2023-08-08T07:46:17;16.10;93.60
53904;DHT22;39812;52.430;16.936;2023-08-08T07:48:43;16.00;93.70
53904;DHT22;39812;52.430;16.936;2023-08-08T07:51:09;15.90;93.50
53904;DHT22;39812;52.430;16.936;2023-08-08T07:53:34;15.70;93.90
53904;DHT22;39812;52.430;16.936;2023-08-08T07:56:00;15.70;94.10
53904;DHT22;39812;52.430;16.936;2023-08-08T07:58:25;15.50;94.20
53904;DHT22;39812;52.430;16.936;2023-08-08T08:00:52;15.60;94.40
53904;DHT22;39812;52.430;16.936;2023-08-08T08:03:19;15.70;94.30
53904;DHT22;39812;52.430;16.936;2023-08-08T08:05:45;15.80;93.70
53904;DHT22;39812;52.430;16.936;2023-08-08T08:08:11;15.80;93.90
53904;DHT22;39812;52.430;16.936;2023-08-08T08:10:36;15.70;93.80
53904;DHT22;39812;52.430;16.936;2023-08-08T08:13:02;15.80;94.00
53904;DHT22;39812;52.430;16.936;2023-08-08T08:15:28;16.00;93.80
53904;DHT22;39812;52.430;16.936;2023-08-08T08:17:54;16.00;93.40
53904;DHT22;39812;52.430;16.936;2023-08-08T08:20:20;16.40;93.40
53904;DHT22;39812;52.430;16.936;2023-08-08T08:22:46;16.70;92.90
53904;DHT22;39812;52.430;16.936;2023-08-08T08:25:13;16.90;92.30
53904;DHT22;39812;52.430;16.936;2023-08-08T08:27:39;17.20;92.00
53904;DHT22;39812;52.430;16.936;2023-08-08T08:30:05;17.40;91.80
53904;DHT22;39812;52.430;16.936;2023-08-08T08:32:33;17.20;92.00
53904;DHT22;39812;52.430;16.936;2023-08-08T08:35:01;17.00;92.00
53904;DHT22;39812;52.430;16.936;2023-08-08T08:37:28;16.90;92.10
53904;DHT22;39812;52.430;16.936;2023-08-08T08:39:53;16.70;92.10
53904;DHT22;39812;52.430;16.936;2023-08-08T08:42:19;16.80;91.70
53904;DHT22;39812;52.430;16.936;2023-08-08T08:44:46;16.70;91.80
53904;DHT22;39812;52.430;16.936;2023-08-08T08:47:13;16.60;92.30
53904;DHT22;39812;52.430;16.936;2023-08-08T08:49:41;16.60;92.50
53904;DHT22;39812;52.430;16.936;2023-08-08T08:52:08;16.90;91.90
53904;DHT22;39812;52.430;16.936;2023-08-08T08:54:34;17.00;91.70
53904;DHT22;39812;52.430;16.936;2023-08-08T08:57:00;16.90;91.60
53904;DHT22;39812;52.430;16.936;2023-08-08T08:59:26;17.10;91.40
53904;DHT22;39812;52.430;16.936;2023-08-08T09:01:52;17.30;91.20
53904;DHT22;39812;52.430;16.936;2023-08-08T09:04:20;17.60;91.10
53904;DHT22;39812;52.430;16.936;2023-08-08T09:06:47;17.60;90.50
53904;DHT22;39812;52.430;16.936;2023-08-08T09:09:13;17.70;90.60
53904;DHT22;39812;52.430;16.936;2023-08-08T09:11:46;17.20;91.10
53904;DHT22;39812;52.430;16.936;2023-08-08T09:14:20;17.10;91.10
53904;DHT22;39812;52.430;16.936;2023-08-08T09:16:47;16.90;91.20
53904;DHT22;39812;52.430;16.936;2023-08-08T09:19:14;16.70;91.60
53904;DHT22;39812;52.430;16.936;2023-08-08T09:21:40;16.50;91.60
53904;DHT22;39812;52.430;16.936;2023-08-08T09:24:05;16.50;91.70
53904;DHT22;39812;52.430;16.936;2023-08-08T09:26:32;16.60;91.60
53904;DHT22;39812;52.430;16.936;2023-08-08T09:28:58;16.60;91.90
53904;DHT22;39812;52.430;16.936;2023-08-08T09:31:27;16.60;92.10
53904;DHT22;39812;52.430;16.936;2023-08-08T09:33:57;16.70;91.60
53904;DHT22;39812;52.430;16.936;2023-08-08T09:36:23;16.80;91.70
53904;DHT22;39812;52.430;16.936;2023-08-08T09:38:49;16.80;91.60
53904;DHT22;39812;52.430;16.936;2023-08-08T09:41:15;17.00;91.70
53904;DHT22;39812;52.430;16.936;2023-08-08T09:43:47;17.30;90.80
53904;DHT22;39812;52.430;16.936;2023-08-08T09:46:13;17.40;90.00
53904;DHT22;39812;52.430;16.936;2023-08-08T09:48:39;17.70;89.70
53904;DHT22;39812;52.430;16.936;2023-08-08T09:51:06;17.60;87.90
53904;DHT22;39812;52.430;16.936;2023-08-08T09:53:33;17.60;88.10
53904;DHT22;39812;52.430;16.936;2023-08-08T09:56:01;17.60;88.60
53904;DHT22;39812;52.430;16.936;2023-08-08T09:58:28;17.80;88.60
53904;DHT22;39812;52.430;16.936;2023-08-08T10:00:54;18.20;86.90
53904;DHT22;39812;52.430;16.936;2023-08-08T10:03:19;18.00;87.20
53904;DHT22;39812;52.430;16.936;2023-08-08T10:05:45;17.80;87.70
53904;DHT22;39812;52.430;16.936;2023-08-08T10:08:14;18.00;87.60
53904;DHT22;39812;52.430;16.936;2023-08-08T10:10:42;18.10;86.80
53904;DHT22;39812;52.430;16.936;2023-08-08T10:13:10;17.90;87.30
53904;DHT22;39812;52.430;16.936;2023-08-08T10:15:39;17.90;86.20
53904;DHT22;39812;52.430;16.936;2023-08-08T10:18:06;18.20;85.80
53904;DHT22;39812;52.430;16.936;2023-08-08T10:20:32;18.50;83.60
53904;DHT22;39812;52.430;16.936;2023-08-08T10:23:02;19.00;84.80
53904;DHT22;39812;52.430;16.936;2023-08-08T10:25:30;19.20;82.60
53904;DHT22;39812;52.430;16.936;2023-08-08T10:28:04;18.90;82.20
53904;DHT22;39812;52.430;16.936;2023-08-08T10:30:41;19.10;82.90
53904;DHT22;39812;52.430;16.936;2023-08-08T10:33:23;19.00;82.00
53904;DHT22;39812;52.430;16.936;2023-08-08T10:36:04;18.50;84.60
53904;DHT22;39812;52.430;16.936;2023-08-08T10:38:44;18.10;85.40
53904;DHT22;39812;52.430;16.936;2023-08-08T10:41:14;17.90;86.50
53904;DHT22;39812;52.430;16.936;2023-08-08T10:43:54;18.00;86.90
53904;DHT22;39812;52.430;16.936;2023-08-08T10:46:25;18.50;85.40
53904;DHT22;39812;52.430;16.936;2023-08-08T10:48:52;19.00;84.60
53904;DHT22;39812;52.430;16.936;2023-08-08T10:51:18;19.60;83.60
53904;DHT22;39812;52.430;16.936;2023-08-08T10:53:45;19.60;82.60
53904;DHT22;39812;52.430;16.936;2023-08-08T10:56:13;19.60;82.00
53904;DHT22;39812;52.430;16.936;2023-08-08T10:58:41;19.60;82.30
53904;DHT22;39812;52.430;16.936;2023-08-08T11:01:08;19.90;81.30
53904;DHT22;39812;52.430;16.936;2023-08-08T11:03:36;19.80;80.80
53904;DHT22;39812;52.430;16.936;2023-08-08T11:06:02;20.30;81.30
53904;DHT22;39812;52.430;16.936;2023-08-08T11:08:30;20.40;80.00
53904;DHT22;39812;52.430;16.936;2023-08-08T11:10:57;20.30;79.80
53904;DHT22;39812;52.430;16.936;2023-08-08T11:13:22;19.70;80.40
53904;DHT22;39812;52.430;16.936;2023-08-08T11:15:48;20.20;80.50
53904;DHT22;39812;52.430;16.936;2023-08-08T11:18:14;20.10;79.70
53904;DHT22;39812;52.430;16.936;2023-08-08T11:20:40;20.30;78.90
53904;DHT22;39812;52.430;16.936;2023-08-08T11:23:05;20.80;78.70
53904;DHT22;39812;52.430;16.936;2023-08-08T11:25:36;20.80;77.00
53904;DHT22;39812;52.430;16.936;2023-08-08T11:28:02;20.70;78.20
53904;DHT22;39812;52.430;16.936;2023-08-08T11:30:29;20.50;78.10
53904;DHT22;39812;52.430;16.936;2023-08-08T11:32:55;20.90;77.20
53904;DHT22;39812;52.430;16.936;2023-08-08T11:35:23;20.60;77.10
53904;DHT22;39812;52.430;16.936;2023-08-08T11:37:52;20.00;78.60
53904;DHT22;39812;52.430;16.936;2023-08-08T11:40:19;19.00;80.20
53904;DHT22;39812;52.430;16.936;2023-08-08T11:42:46;18.60;80.00
53904;DHT22;39812;52.430;16.936;2023-08-08T11:45:12;18.60;80.90
53904;DHT22;39812;52.430;16.936;2023-08-08T11:47:42;18.60;81.10
53904;DHT22;39812;52.430;16.936;2023-08-08T11:50:09;18.40;83.00
53904;DHT22;39812;52.430;16.936;2023-08-08T11:52:40;18.00;86.00
53904;DHT22;39812;52.430;16.936;2023-08-08T11:55:09;17.90;87.90
53904;DHT22;39812;52.430;16.936;2023-08-08T11:57:36;17.40;84.10
53904;DHT22;39812;52.430;16.936;2023-08-08T12:00:10;16.90;85.90
53904;DHT22;39812;52.430;16.936;2023-08-08T12:02:39;16.50;87.20
53904;DHT22;39812;52.430;16.936;2023-08-08T12:05:13;16.30;88.40
53904;DHT22;39812;52.430;16.936;2023-08-08T12:07:43;16.70;87.70
53904;DHT22;39812;52.430;16.936;2023-08-08T12:10:24;17.10;87.40
53904;DHT22;39812;52.430;16.936;2023-08-08T12:12:55;17.50;87.30
53904;DHT22;39812;52.430;16.936;2023-08-08T12:15:23;19.60;83.60
53904;DHT22;39812;52.430;16.936;2023-08-08T12:17:49;21.70;77.90
53904;DHT22;39812;52.430;16.936;2023-08-08T12:20:15;23.00;74.30
53904;DHT22;39812;52.430;16.936;2023-08-08T12:22:41;23.80;70.90
53904;DHT22;39812;52.430;16.936;2023-08-08T12:25:07;25.40;69.10
53904;DHT22;39812;52.430;16.936;2023-08-08T12:27:33;26.20;67.80
53904;DHT22;39812;52.430;16.936;2023-08-08T12:29:59;26.40;66.20
53904;DHT22;39812;52.430;16.936;2023-08-08T12:32:26;26.70;66.30
53904;DHT22;39812;52.430;16.936;2023-08-08T12:34:54;26.90;65.60
53904;DHT22;39812;52.430;16.936;2023-08-08T12:37:19;24.80;68.00
53904;DHT22;39812;52.430;16.936;2023-08-08T12:39:45;23.40;71.80
53904;DHT22;39812;52.430;16.936;2023-08-08T12:42:11;22.30;75.00
53904;DHT22;39812;52.430;16.936;2023-08-08T12:44:36;23.50;74.90
53904;DHT22;39812;52.430;16.936;2023-08-08T12:47:02;22.20;73.60
53904;DHT22;39812;52.430;16.936;2023-08-08T12:49:28;21.50;74.00
53904;DHT22;39812;52.430;16.936;2023-08-08T12:51:53;20.40;75.80
53904;DHT22;39812;52.430;16.936;2023-08-08T12:54:21;20.50;75.10
53904;DHT22;39812;52.430;16.936;2023-08-08T12:56:47;20.20;75.10
53904;DHT22;39812;52.430;16.936;2023-08-08T12:59:12;20.50;74.50
53904;DHT22;39812;52.430;16.936;2023-08-08T13:01:38;22.80;71.60
53904;DHT22;39812;52.430;16.936;2023-08-08T13:04:04;23.80;68.10
53904;DHT22;39812;52.430;16.936;2023-08-08T13:06:30;25.20;66.50
53904;DHT22;39812;52.430;16.936;2023-08-08T13:08:56;26.80;64.30
53904;DHT22;39812;52.430;16.936;2023-08-08T13:11:21;27.70;63.20
53904;DHT22;39812;52.430;16.936;2023-08-08T13:13:47;28.70;60.90
53904;DHT22;39812;52.430;16.936;2023-08-08T13:16:13;28.90;60.30
53904;DHT22;39812;52.430;16.936;2023-08-08T13:18:39;27.40;60.60
53904;DHT22;39812;52.430;16.936;2023-08-08T13:21:05;27.80;62.40
53904;DHT22;39812;52.430;16.936;2023-08-08T13:23:32;27.90;61.40
53904;DHT22;39812;52.430;16.936;2023-08-08T13:25:57;27.20;62.50
53904;DHT22;39812;52.430;16.936;2023-08-08T13:28:23;25.60;64.20
53904;DHT22;39812;52.430;16.936;2023-08-08T13:30:49;25.50;66.70
53904;DHT22;39812;52.430;16.936;2023-08-08T13:33:14;24.20;69.00
53904;DHT22;39812;52.430;16.936;2023-08-08T13:35:40;26.30;64.50
53904;DHT22;39812;52.430;16.936;2023-08-08T13:38:05;26.90;62.10
53904;DHT22;39812;52.430;16.936;2023-08-08T13:40:33;28.00;59.80
53904;DHT22;39812;52.430;16.936;2023-08-08T13:42:58;29.50;58.90
53904;DHT22;39812;52.430;16.936;2023-08-08T13:45:24;29.20;57.80
53904;DHT22;39812;52.430;16.936;2023-08-08T13:47:49;29.20;56.90
53904;DHT22;39812;52.430;16.936;2023-08-08T13:50:15;28.60;58.50
53904;DHT22;39812;52.430;16.936;2023-08-08T13:52:41;27.40;60.40
53904;DHT22;39812;52.430;16.936;2023-08-08T13:55:08;24.50;63.60
53904;DHT22;39812;52.430;16.936;2023-08-08T13:57:34;22.80;68.30
53904;DHT22;39812;52.430;16.936;2023-08-08T14:00:00;22.40;70.80
53904;DHT22;39812;52.430;16.936;2023-08-08T14:02:26;21.60;73.00
53904;DHT22;39812;52.430;16.936;2023-08-08T14:04:51;21.50;73.50
53904;DHT22;39812;52.430;16.936;2023-08-08T14:07:18;21.90;73.10
53904;DHT22;39812;52.430;16.936;2023-08-08T14:09:44;25.80;66.70
53904;DHT22;39812;52.430;16.936;2023-08-08T14:12:09;27.30;61.80
53904;DHT22;39812;52.430;16.936;2023-08-08T14:14:35;28.80;59.90
53904;DHT22;39812;52.430;16.936;2023-08-08T14:17:01;30.10;58.90
53904;DHT22;39812;52.430;16.936;2023-08-08T14:19:26;27.00;59.30
53904;DHT22;39812;52.430;16.936;2023-08-08T14:21:52;24.30;64.10
53904;DHT22;39812;52.430;16.936;2023-08-08T14:24:17;22.10;69.90
53904;DHT22;39812;52.430;16.936;2023-08-08T14:26:44;20.70;74.80
53904;DHT22;39812;52.430;16.936;2023-08-08T14:29:09;18.80;88.60
53904;DHT22;39812;52.430;16.936;2023-08-08T14:31:35;15.90;99.90
53904;DHT22;39812;52.430;16.936;2023-08-08T14:34:00;15.50;99.90
53904;DHT22;39812;52.430;16.936;2023-08-08T14:36:26;17.40;99.90
53904;DHT22;39812;52.430;16.936;2023-08-08T14:38:52;19.60;95.80
53904;DHT22;39812;52.430;16.936;2023-08-08T14:41:17;19.00;92.40
53904;DHT22;39812;52.430;16.936;2023-08-08T14:43:43;19.20;91.10
53904;DHT22;39812;52.430;16.936;2023-08-08T14:46:08;19.10;90.70
53904;DHT22;39812;52.430;16.936;2023-08-08T14:48:34;19.20;90.40
53904;DHT22;39812;52.430;16.936;2023-08-08T14:51:01;19.40;88.40
53904;DHT22;39812;52.430;16.936;2023-08-08T14:53:27;20.70;85.80
53904;DHT22;39812;52.430;16.936;2023-08-08T14:55:52;23.10;81.30
53904;DHT22;39812;52.430;16.936;2023-08-08T14:58:18;25.30;72.60
53904;DHT22;39812;52.430;16.936;2023-08-08T15:00:45;24.40;73.50
53904;DHT22;39812;52.430;16.936;2023-08-08T15:03:11;26.10;71.10
53904;DHT22;39812;52.430;16.936;2023-08-08T15:05:36;28.80;67.40
53904;DHT22;39812;52.430;16.936;2023-08-08T15:08:02;31.70;60.60
53904;DHT22;39812;52.430;16.936;2023-08-08T15:10:28;31.60;59.40